sensor_id;sensor_type;location;lat;lon;timestamp;P1;durP1;ratioP1;P2;durP2;ratioP2
31798;SDS011;18374;51.136;3.502;2022-07-03T00:02:07;2.25;;;0.88;;
31798;SDS011;18374;51.136;3.502;2022-07-03T00:04:37;1.15;;;0.82;;
31798;SDS011;18374;51.136;3.502;2022-07-03T00:07:14;3.05;;;0.90;;
31798;SDS011;18374;51.136;3.502;2022-07-03T00:09:54;3.10;;;0.80;;
31798;SDS011;18374;51.136;3.502;2022-07-03T00:12:28;5.15;;;1.17;;
31798;SDS011;18374;51.136;3.502;2022-07-03T00:15:08;1.85;;;1.05;;
31798;SDS011;18374;51.136;3.502;2022-07-03T00:17:41;2.20;;;0.80;;
31798;SDS011;18374;51.136;3.502;2022-07-03T00:20:09;2.53;;;0.82;;
31798;SDS011;18374;51.136;3.502;2022-07-03T00:22:40;3.35;;;0.90;;
31798;SDS011;18374;51.136;3.502;2022-07-03T00:25:13;5.07;;;0.90;;
31798;SDS011;18374;51.136;3.502;2022-07-03T00:27:45;2.25;;;0.90;;
31798;SDS011;18374;51.136;3.502;2022-07-03T00:30:26;3.22;;;1.00;;
31798;SDS011;18374;51.136;3.502;2022-07-03T00:33:03;4.60;;;1.00;;
31798;SDS011;18374;51.136;3.502;2022-07-03T00:35:44;4.32;;;0.95;;
31798;SDS011;18374;51.136;3.502;2022-07-03T00:38:39;3.88;;;1.10;;
31798;SDS011;18374;51.136;3.502;2022-07-03T00:41:22;3.00;;;0.95;;
31798;SDS011;18374;51.136;3.502;2022-07-03T00:46:29;1.63;;;0.82;;
31798;SDS011;18374;51.136;3.502;2022-07-03T00:48:59;2.45;;;1.00;;
31798;SDS011;18374;51.136;3.502;2022-07-03T00:51:33;1.73;;;1.00;;
31798;SDS011;18374;51.136;3.502;2022-07-03T00:54:06;2.53;;;1.00;;
31798;SDS011;18374;51.136;3.502;2022-07-03T00:56:40;4.05;;;1.08;;
31798;SDS011;18374;51.136;3.502;2022-07-03T00:59:31;1.45;;;1.10;;
31798;SDS011;18374;51.136;3.502;2022-07-03T01:02:04;1.75;;;0.90;;
31798;SDS011;18374;51.136;3.502;2022-07-03T01:07:28;2.83;;;1.13;;
31798;SDS011;18374;51.136;3.502;2022-07-03T01:18:34;3.30;;;1.40;;
31798;SDS011;18374;51.136;3.502;2022-07-03T01:27:02;2.00;;;1.25;;
31798;SDS011;18374;51.136;3.502;2022-07-03T01:29:38;1.67;;;1.13;;
31798;SDS011;18374;51.136;3.502;2022-07-03T01:32:19;1.80;;;1.00;;
31798;SDS011;18374;51.136;3.502;2022-07-03T01:34:52;1.52;;;1.02;;
31798;SDS011;18374;51.136;3.502;2022-07-03T01:37:21;2.13;;;1.38;;
31798;SDS011;18374;51.136;3.502;2022-07-03T01:39:52;2.03;;;1.20;;
31798;SDS011;18374;51.136;3.502;2022-07-03T01:42:22;2.10;;;1.33;;
31798;SDS011;18374;51.136;3.502;2022-07-03T01:44:52;2.95;;;1.30;;
31798;SDS011;18374;51.136;3.502;2022-07-03T01:47:20;2.15;;;1.38;;
31798;SDS011;18374;51.136;3.502;2022-07-03T01:49:54;2.40;;;1.42;;
31798;SDS011;18374;51.136;3.502;2022-07-03T01:52:23;2.28;;;1.08;;
31798;SDS011;18374;51.136;3.502;2022-07-03T01:55:12;2.33;;;1.58;;
31798;SDS011;18374;51.136;3.502;2022-07-03T02:00:10;3.55;;;1.63;;
31798;SDS011;18374;51.136;3.502;2022-07-03T02:02:42;1.80;;;1.23;;
31798;SDS011;18374;51.136;3.502;2022-07-03T02:05:22;3.33;;;1.60;;
31798;SDS011;18374;51.136;3.502;2022-07-03T02:10:42;2.70;;;1.30;;
31798;SDS011;18374;51.136;3.502;2022-07-03T02:13:24;3.28;;;1.60;;
31798;SDS011;18374;51.136;3.502;2022-07-03T02:15:56;2.85;;;1.65;;
31798;SDS011;18374;51.136;3.502;2022-07-03T02:21:10;3.80;;;1.67;;
31798;SDS011;18374;51.136;3.502;2022-07-03T02:23:51;3.55;;;1.77;;
31798;SDS011;18374;51.136;3.502;2022-07-03T02:26:39;2.92;;;1.55;;
31798;SDS011;18374;51.136;3.502;2022-07-03T02:29:12;4.43;;;1.77;;
31798;SDS011;18374;51.136;3.502;2022-07-03T02:31:46;6.15;;;1.80;;
31798;SDS011;18374;51.136;3.502;2022-07-03T02:34:27;2.30;;;1.70;;
31798;SDS011;18374;51.136;3.502;2022-07-03T02:36:59;2.65;;;1.77;;
31798;SDS011;18374;51.136;3.502;2022-07-03T02:39:41;4.60;;;1.90;;
31798;SDS011;18374;51.136;3.502;2022-07-03T02:42:23;4.60;;;2.03;;
31798;SDS011;18374;51.136;3.502;2022-07-03T02:45:02;2.25;;;1.95;;
31798;SDS011;18374;51.136;3.502;2022-07-03T02:50:08;2.33;;;1.73;;
31798;SDS011;18374;51.136;3.502;2022-07-03T02:52:54;4.15;;;2.47;;
31798;SDS011;18374;51.136;3.502;2022-07-03T02:55:49;2.33;;;2.03;;
31798;SDS011;18374;51.136;3.502;2022-07-03T03:01:48;4.45;;;2.05;;
31798;SDS011;18374;51.136;3.502;2022-07-03T03:04:30;7.75;;;2.60;;
31798;SDS011;18374;51.136;3.502;2022-07-03T03:07:10;5.80;;;2.60;;
31798;SDS011;18374;51.136;3.502;2022-07-03T03:09:44;5.65;;;2.72;;
31798;SDS011;18374;51.136;3.502;2022-07-03T03:12:15;6.13;;;2.58;;
31798;SDS011;18374;51.136;3.502;2022-07-03T03:15:04;5.82;;;3.00;;
31798;SDS011;18374;51.136;3.502;2022-07-03T03:17:36;3.70;;;2.97;;
31798;SDS011;18374;51.136;3.502;2022-07-03T03:20:14;4.18;;;3.00;;
31798;SDS011;18374;51.136;3.502;2022-07-03T03:25:56;6.53;;;3.20;;
31798;SDS011;18374;51.136;3.502;2022-07-03T03:28:26;6.85;;;3.83;;
31798;SDS011;18374;51.136;3.502;2022-07-03T03:30:54;6.68;;;3.50;;
31798;SDS011;18374;51.136;3.502;2022-07-03T03:33:23;6.05;;;3.30;;
31798;SDS011;18374;51.136;3.502;2022-07-03T03:35:50;10.65;;;4.00;;
31798;SDS011;18374;51.136;3.502;2022-07-03T03:38:20;5.25;;;3.70;;
31798;SDS011;18374;51.136;3.502;2022-07-03T03:40:50;6.85;;;4.07;;
31798;SDS011;18374;51.136;3.502;2022-07-03T03:43:19;8.10;;;3.92;;
31798;SDS011;18374;51.136;3.502;2022-07-03T03:45:47;6.03;;;3.90;;
31798;SDS011;18374;51.136;3.502;2022-07-03T03:48:15;5.82;;;4.15;;
31798;SDS011;18374;51.136;3.502;2022-07-03T03:51:00;7.22;;;4.40;;
31798;SDS011;18374;51.136;3.502;2022-07-03T03:53:32;9.15;;;4.10;;
31798;SDS011;18374;51.136;3.502;2022-07-03T03:56:07;6.72;;;4.18;;
31798;SDS011;18374;51.136;3.502;2022-07-03T03:58:46;6.40;;;4.30;;
31798;SDS011;18374;51.136;3.502;2022-07-03T04:01:26;5.53;;;4.18;;
31798;SDS011;18374;51.136;3.502;2022-07-03T04:04:17;8.02;;;4.47;;
31798;SDS011;18374;51.136;3.502;2022-07-03T04:06:54;7.22;;;4.78;;
31798;SDS011;18374;51.136;3.502;2022-07-03T04:09:22;6.72;;;4.05;;
31798;SDS011;18374;51.136;3.502;2022-07-03T04:11:52;7.00;;;4.35;;
31798;SDS011;18374;51.136;3.502;2022-07-03T04:14:31;7.35;;;4.45;;
31798;SDS011;18374;51.136;3.502;2022-07-03T04:17:08;12.18;;;4.85;;
31798;SDS011;18374;51.136;3.502;2022-07-03T04:19:39;7.45;;;5.32;;
31798;SDS011;18374;51.136;3.502;2022-07-03T04:22:12;7.95;;;4.68;;
31798;SDS011;18374;51.136;3.502;2022-07-03T04:24:48;12.02;;;4.97;;
31798;SDS011;18374;51.136;3.502;2022-07-03T04:27:18;5.80;;;5.10;;
31798;SDS011;18374;51.136;3.502;2022-07-03T04:30:11;7.20;;;5.22;;
31798;SDS011;18374;51.136;3.502;2022-07-03T04:32:47;11.18;;;5.55;;
31798;SDS011;18374;51.136;3.502;2022-07-03T04:35:21;7.00;;;4.95;;
31798;SDS011;18374;51.136;3.502;2022-07-03T04:37:51;8.70;;;5.43;;
31798;SDS011;18374;51.136;3.502;2022-07-03T04:40:38;11.13;;;5.20;;
31798;SDS011;18374;51.136;3.502;2022-07-03T04:43:10;8.35;;;5.53;;
31798;SDS011;18374;51.136;3.502;2022-07-03T04:45:40;10.45;;;6.25;;
31798;SDS011;18374;51.136;3.502;2022-07-03T04:48:10;7.63;;;5.45;;
31798;SDS011;18374;51.136;3.502;2022-07-03T04:50:48;10.32;;;5.88;;
31798;SDS011;18374;51.136;3.502;2022-07-03T04:53:17;8.65;;;5.78;;
31798;SDS011;18374;51.136;3.502;2022-07-03T04:55:48;10.13;;;6.50;;
31798;SDS011;18374;51.136;3.502;2022-07-03T04:58:18;9.43;;;5.97;;
31798;SDS011;18374;51.136;3.502;2022-07-03T05:01:09;9.10;;;6.00;;
31798;SDS011;18374;51.136;3.502;2022-07-03T05:03:38;12.38;;;6.45;;
31798;SDS011;18374;51.136;3.502;2022-07-03T05:06:08;9.68;;;5.93;;
31798;SDS011;18374;51.136;3.502;2022-07-03T05:08:46;8.20;;;6.03;;
31798;SDS011;18374;51.136;3.502;2022-07-03T05:11:16;9.80;;;6.75;;
31798;SDS011;18374;51.136;3.502;2022-07-03T05:13:44;10.57;;;6.72;;
31798;SDS011;18374;51.136;3.502;2022-07-03T05:16:12;11.25;;;5.95;;
31798;SDS011;18374;51.136;3.502;2022-07-03T05:18:40;12.00;;;6.53;;
31798;SDS011;18374;51.136;3.502;2022-07-03T05:21:08;16.25;;;6.30;;
31798;SDS011;18374;51.136;3.502;2022-07-03T05:23:37;12.27;;;6.55;;
31798;SDS011;18374;51.136;3.502;2022-07-03T05:26:05;9.80;;;6.15;;
31798;SDS011;18374;51.136;3.502;2022-07-03T05:28:34;8.50;;;6.35;;
31798;SDS011;18374;51.136;3.502;2022-07-03T05:31:02;7.78;;;5.97;;
31798;SDS011;18374;51.136;3.502;2022-07-03T05:33:30;12.70;;;6.55;;
31798;SDS011;18374;51.136;3.502;2022-07-03T05:35:57;9.55;;;6.13;;
31798;SDS011;18374;51.136;3.502;2022-07-03T05:38:26;9.57;;;6.30;;
31798;SDS011;18374;51.136;3.502;2022-07-03T05:41:23;10.13;;;6.40;;
31798;SDS011;18374;51.136;3.502;2022-07-03T05:43:51;11.32;;;6.82;;
31798;SDS011;18374;51.136;3.502;2022-07-03T05:46:18;12.02;;;5.53;;
31798;SDS011;18374;51.136;3.502;2022-07-03T05:48:46;9.48;;;6.15;;
31798;SDS011;18374;51.136;3.502;2022-07-03T05:51:14;10.10;;;6.47;;
31798;SDS011;18374;51.136;3.502;2022-07-03T05:53:42;9.13;;;5.43;;
31798;SDS011;18374;51.136;3.502;2022-07-03T05:56:09;9.80;;;5.65;;
31798;SDS011;18374;51.136;3.502;2022-07-03T05:58:37;8.23;;;5.53;;
31798;SDS011;18374;51.136;3.502;2022-07-03T06:01:05;11.10;;;6.18;;
31798;SDS011;18374;51.136;3.502;2022-07-03T06:03:33;9.50;;;5.55;;
31798;SDS011;18374;51.136;3.502;2022-07-03T06:06:01;8.05;;;4.82;;
31798;SDS011;18374;51.136;3.502;2022-07-03T06:08:28;10.57;;;5.10;;
31798;SDS011;18374;51.136;3.502;2022-07-03T06:10:56;10.18;;;5.75;;
31798;SDS011;18374;51.136;3.502;2022-07-03T06:13:24;7.47;;;5.32;;
31798;SDS011;18374;51.136;3.502;2022-07-03T06:15:51;8.10;;;5.53;;
31798;SDS011;18374;51.136;3.502;2022-07-03T06:18:19;6.97;;;5.10;;
31798;SDS011;18374;51.136;3.502;2022-07-03T06:20:47;9.60;;;5.60;;
31798;SDS011;18374;51.136;3.502;2022-07-03T06:23:14;8.73;;;4.70;;
31798;SDS011;18374;51.136;3.502;2022-07-03T06:26:02;9.57;;;5.10;;
31798;SDS011;18374;51.136;3.502;2022-07-03T06:28:30;7.50;;;4.25;;
31798;SDS011;18374;51.136;3.502;2022-07-03T06:30:58;7.45;;;4.50;;
31798;SDS011;18374;51.136;3.502;2022-07-03T06:33:25;8.05;;;4.68;;
31798;SDS011;18374;51.136;3.502;2022-07-03T06:35:53;8.35;;;4.80;;
31798;SDS011;18374;51.136;3.502;2022-07-03T06:38:23;7.18;;;4.30;;
31798;SDS011;18374;51.136;3.502;2022-07-03T06:40:51;21.00;;;5.38;;
31798;SDS011;18374;51.136;3.502;2022-07-03T06:43:19;5.97;;;4.53;;
31798;SDS011;18374;51.136;3.502;2022-07-03T06:45:47;10.85;;;5.10;;
31798;SDS011;18374;51.136;3.502;2022-07-03T06:48:14;7.55;;;4.78;;
31798;SDS011;18374;51.136;3.502;2022-07-03T06:50:45;7.53;;;4.78;;
31798;SDS011;18374;51.136;3.502;2022-07-03T06:53:13;11.73;;;5.07;;
31798;SDS011;18374;51.136;3.502;2022-07-03T06:55:41;8.27;;;5.00;;
31798;SDS011;18374;51.136;3.502;2022-07-03T06:58:09;7.35;;;5.57;;
31798;SDS011;18374;51.136;3.502;2022-07-03T07:00:37;11.07;;;5.85;;
31798;SDS011;18374;51.136;3.502;2022-07-03T07:03:07;13.77;;;5.85;;
31798;SDS011;18374;51.136;3.502;2022-07-03T07:05:34;7.28;;;5.72;;
31798;SDS011;18374;51.136;3.502;2022-07-03T07:08:02;11.02;;;5.28;;
31798;SDS011;18374;51.136;3.502;2022-07-03T07:10:30;8.82;;;4.35;;
31798;SDS011;18374;51.136;3.502;2022-07-03T07:12:58;8.27;;;4.30;;
31798;SDS011;18374;51.136;3.502;2022-07-03T07:15:26;8.20;;;4.05;;
31798;SDS011;18374;51.136;3.502;2022-07-03T07:17:53;6.88;;;4.10;;
31798;SDS011;18374;51.136;3.502;2022-07-03T07:20:21;6.28;;;3.65;;
31798;SDS011;18374;51.136;3.502;2022-07-03T07:22:55;8.15;;;3.00;;
31798;SDS011;18374;51.136;3.502;2022-07-03T07:25:22;4.03;;;2.83;;
31798;SDS011;18374;51.136;3.502;2022-07-03T07:27:50;5.47;;;3.22;;
31798;SDS011;18374;51.136;3.502;2022-07-03T07:30:18;6.68;;;2.85;;
31798;SDS011;18374;51.136;3.502;2022-07-03T07:32:45;6.78;;;2.22;;
31798;SDS011;18374;51.136;3.502;2022-07-03T07:35:20;8.02;;;2.80;;
31798;SDS011;18374;51.136;3.502;2022-07-03T07:37:48;11.77;;;3.45;;
31798;SDS011;18374;51.136;3.502;2022-07-03T07:40:15;8.38;;;2.58;;
31798;SDS011;18374;51.136;3.502;2022-07-03T07:42:43;7.30;;;2.40;;
31798;SDS011;18374;51.136;3.502;2022-07-03T07:45:11;2.83;;;1.80;;
31798;SDS011;18374;51.136;3.502;2022-07-03T07:47:39;5.25;;;2.20;;
31798;SDS011;18374;51.136;3.502;2022-07-03T07:50:07;5.18;;;2.28;;
31798;SDS011;18374;51.136;3.502;2022-07-03T07:52:35;5.15;;;2.53;;
31798;SDS011;18374;51.136;3.502;2022-07-03T07:55:24;4.40;;;2.50;;
31798;SDS011;18374;51.136;3.502;2022-07-03T07:57:52;5.35;;;2.80;;
31798;SDS011;18374;51.136;3.502;2022-07-03T08:00:22;10.75;;;3.53;;
31798;SDS011;18374;51.136;3.502;2022-07-03T08:02:50;4.30;;;2.78;;
31798;SDS011;18374;51.136;3.502;2022-07-03T08:05:37;4.47;;;2.83;;
31798;SDS011;18374;51.136;3.502;2022-07-03T08:08:06;6.78;;;2.60;;
31798;SDS011;18374;51.136;3.502;2022-07-03T08:10:45;5.90;;;2.88;;
31798;SDS011;18374;51.136;3.502;2022-07-03T08:13:18;7.03;;;2.85;;
31798;SDS011;18374;51.136;3.502;2022-07-03T08:15:48;4.70;;;2.55;;
31798;SDS011;18374;51.136;3.502;2022-07-03T08:18:15;6.10;;;2.35;;
31798;SDS011;18374;51.136;3.502;2022-07-03T08:20:43;5.57;;;2.33;;
31798;SDS011;18374;51.136;3.502;2022-07-03T08:23:11;3.92;;;1.85;;
31798;SDS011;18374;51.136;3.502;2022-07-03T08:25:39;4.85;;;2.13;;
31798;SDS011;18374;51.136;3.502;2022-07-03T08:28:07;4.20;;;2.05;;
31798;SDS011;18374;51.136;3.502;2022-07-03T08:30:34;6.45;;;2.30;;
31798;SDS011;18374;51.136;3.502;2022-07-03T08:33:02;7.75;;;2.03;;
31798;SDS011;18374;51.136;3.502;2022-07-03T08:35:34;6.18;;;2.53;;
31798;SDS011;18374;51.136;3.502;2022-07-03T08:38:02;5.18;;;1.70;;
31798;SDS011;18374;51.136;3.502;2022-07-03T08:40:34;2.75;;;1.40;;
31798;SDS011;18374;51.136;3.502;2022-07-03T08:43:02;3.08;;;1.35;;
31798;SDS011;18374;51.136;3.502;2022-07-03T08:45:35;2.10;;;1.10;;
31798;SDS011;18374;51.136;3.502;2022-07-03T08:48:07;4.70;;;1.00;;
31798;SDS011;18374;51.136;3.502;2022-07-03T08:50:44;3.53;;;0.80;;
31798;SDS011;18374;51.136;3.502;2022-07-03T08:53:15;1.92;;;1.08;;
31798;SDS011;18374;51.136;3.502;2022-07-03T08:55:48;2.40;;;1.15;;
31798;SDS011;18374;51.136;3.502;2022-07-03T08:58:16;3.67;;;1.40;;
31798;SDS011;18374;51.136;3.502;2022-07-03T09:00:46;2.47;;;1.23;;
31798;SDS011;18374;51.136;3.502;2022-07-03T09:03:14;2.10;;;1.08;;
31798;SDS011;18374;51.136;3.502;2022-07-03T09:05:45;3.08;;;1.20;;
31798;SDS011;18374;51.136;3.502;2022-07-03T09:10:52;4.63;;;1.50;;
31798;SDS011;18374;51.136;3.502;2022-07-03T09:13:20;3.15;;;1.50;;
31798;SDS011;18374;51.136;3.502;2022-07-03T09:15:48;3.08;;;1.50;;
31798;SDS011;18374;51.136;3.502;2022-07-03T09:18:16;6.68;;;1.50;;
31798;SDS011;18374;51.136;3.502;2022-07-03T09:21:05;1.90;;;1.60;;
31798;SDS011;18374;51.136;3.502;2022-07-03T09:23:40;4.78;;;1.80;;
31798;SDS011;18374;51.136;3.502;2022-07-03T09:26:21;3.92;;;1.45;;
31798;SDS011;18374;51.136;3.502;2022-07-03T09:28:54;3.63;;;1.83;;
31798;SDS011;18374;51.136;3.502;2022-07-03T09:31:24;6.53;;;1.83;;
31798;SDS011;18374;51.136;3.502;2022-07-03T09:34:03;3.25;;;2.03;;
31798;SDS011;18374;51.136;3.502;2022-07-03T09:36:43;2.97;;;1.90;;
31798;SDS011;18374;51.136;3.502;2022-07-03T09:39:23;2.75;;;1.70;;
31798;SDS011;18374;51.136;3.502;2022-07-03T09:42:08;1.75;;;1.48;;
31798;SDS011;18374;51.136;3.502;2022-07-03T09:44:55;3.90;;;1.50;;
31798;SDS011;18374;51.136;3.502;2022-07-03T09:47:28;3.45;;;1.15;;
31798;SDS011;18374;51.136;3.502;2022-07-03T09:50:02;1.48;;;1.20;;
31798;SDS011;18374;51.136;3.502;2022-07-03T09:52:47;8.45;;;1.20;;
31798;SDS011;18374;51.136;3.502;2022-07-03T09:55:17;3.85;;;1.30;;
31798;SDS011;18374;51.136;3.502;2022-07-03T10:00:23;4.85;;;1.75;;
31798;SDS011;18374;51.136;3.502;2022-07-03T10:05:41;5.45;;;1.60;;
31798;SDS011;18374;51.136;3.502;2022-07-03T10:10:45;1.90;;;1.13;;
31798;SDS011;18374;51.136;3.502;2022-07-03T10:13:15;1.13;;;0.80;;
31798;SDS011;18374;51.136;3.502;2022-07-03T10:15:43;4.25;;;0.70;;
31798;SDS011;18374;51.136;3.502;2022-07-03T10:18:14;3.90;;;0.80;;
31798;SDS011;18374;51.136;3.502;2022-07-03T10:20:46;1.60;;;0.70;;
31798;SDS011;18374;51.136;3.502;2022-07-03T10:23:20;3.60;;;0.88;;
31798;SDS011;18374;51.136;3.502;2022-07-03T10:26:11;2.13;;;0.90;;
31798;SDS011;18374;51.136;3.502;2022-07-03T10:29:03;3.05;;;0.90;;
31798;SDS011;18374;51.136;3.502;2022-07-03T10:31:36;2.80;;;1.13;;
31798;SDS011;18374;51.136;3.502;2022-07-03T10:34:48;2.22;;;0.90;;
31798;SDS011;18374;51.136;3.502;2022-07-03T10:37:16;2.08;;;0.70;;
31798;SDS011;18374;51.136;3.502;2022-07-03T10:43:23;5.35;;;0.90;;
31798;SDS011;18374;51.136;3.502;2022-07-03T10:46:16;5.72;;;1.02;;
31798;SDS011;18374;51.136;3.502;2022-07-03T10:49:04;5.35;;;1.33;;
31798;SDS011;18374;51.136;3.502;2022-07-03T10:57:04;1.38;;;0.70;;
31798;SDS011;18374;51.136;3.502;2022-07-03T11:10:33;4.78;;;1.02;;
31798;SDS011;18374;51.136;3.502;2022-07-03T11:13:12;5.30;;;0.77;;
31798;SDS011;18374;51.136;3.502;2022-07-03T11:16:00;2.70;;;0.75;;
31798;SDS011;18374;51.136;3.502;2022-07-03T11:18:34;2.78;;;0.75;;
31798;SDS011;18374;51.136;3.502;2022-07-03T11:24:03;4.68;;;0.80;;
31798;SDS011;18374;51.136;3.502;2022-07-03T11:27:12;5.00;;;0.90;;
31798;SDS011;18374;51.136;3.502;2022-07-03T11:29:55;3.00;;;0.98;;
31798;SDS011;18374;51.136;3.502;2022-07-03T11:38:30;6.00;;;0.93;;
31798;SDS011;18374;51.136;3.502;2022-07-03T11:40:58;1.90;;;0.80;;
31798;SDS011;18374;51.136;3.502;2022-07-03T11:43:27;1.23;;;0.65;;
31798;SDS011;18374;51.136;3.502;2022-07-03T11:45:58;2.13;;;0.73;;
31798;SDS011;18374;51.136;3.502;2022-07-03T11:48:28;0.98;;;0.60;;
31798;SDS011;18374;51.136;3.502;2022-07-03T11:51:03;2.47;;;0.75;;
31798;SDS011;18374;51.136;3.502;2022-07-03T11:53:38;1.02;;;0.60;;
31798;SDS011;18374;51.136;3.502;2022-07-03T11:56:23;1.92;;;0.82;;
31798;SDS011;18374;51.136;3.502;2022-07-03T11:59:17;2.15;;;0.90;;
31798;SDS011;18374;51.136;3.502;2022-07-03T12:01:53;1.00;;;0.70;;
31798;SDS011;18374;51.136;3.502;2022-07-03T12:04:41;3.47;;;0.80;;
31798;SDS011;18374;51.136;3.502;2022-07-03T12:07:20;1.88;;;0.80;;
31798;SDS011;18374;51.136;3.502;2022-07-03T12:10:07;0.98;;;0.73;;
31798;SDS011;18374;51.136;3.502;2022-07-03T12:12:39;2.30;;;0.60;;
31798;SDS011;18374;51.136;3.502;2022-07-03T12:15:19;2.08;;;0.90;;
31798;SDS011;18374;51.136;3.502;2022-07-03T12:17:54;1.50;;;0.82;;
31798;SDS011;18374;51.136;3.502;2022-07-03T12:23:14;2.08;;;0.90;;
31798;SDS011;18374;51.136;3.502;2022-07-03T12:25:42;1.98;;;0.80;;
31798;SDS011;18374;51.136;3.502;2022-07-03T12:28:17;1.58;;;0.60;;
31798;SDS011;18374;51.136;3.502;2022-07-03T12:30:49;1.63;;;0.80;;
31798;SDS011;18374;51.136;3.502;2022-07-03T12:33:26;3.55;;;1.23;;
31798;SDS011;18374;51.136;3.502;2022-07-03T12:36:15;1.52;;;0.60;;
31798;SDS011;18374;51.136;3.502;2022-07-03T12:38:52;4.18;;;0.95;;
31798;SDS011;18374;51.136;3.502;2022-07-03T12:41:24;3.55;;;0.50;;
31798;SDS011;18374;51.136;3.502;2022-07-03T12:44:03;12.35;;;1.80;;
31798;SDS011;18374;51.136;3.502;2022-07-03T12:46:37;3.70;;;0.63;;
31798;SDS011;18374;51.136;3.502;2022-07-03T12:49:08;1.67;;;0.88;;
31798;SDS011;18374;51.136;3.502;2022-07-03T12:51:52;1.67;;;0.60;;
31798;SDS011;18374;51.136;3.502;2022-07-03T12:57:09;1.60;;;0.77;;
31798;SDS011;18374;51.136;3.502;2022-07-03T13:00:01;2.75;;;0.82;;
31798;SDS011;18374;51.136;3.502;2022-07-03T13:02:33;2.75;;;0.77;;
31798;SDS011;18374;51.136;3.502;2022-07-03T13:05:19;4.03;;;0.90;;
31798;SDS011;18374;51.136;3.502;2022-07-03T13:07:53;2.35;;;0.80;;
31798;SDS011;18374;51.136;3.502;2022-07-03T13:10:22;5.97;;;1.35;;
31798;SDS011;18374;51.136;3.502;2022-07-03T13:12:52;6.65;;;1.00;;
31798;SDS011;18374;51.136;3.502;2022-07-03T13:15:27;10.10;;;1.08;;
31798;SDS011;18374;51.136;3.502;2022-07-03T13:17:59;13.90;;;2.45;;
31798;SDS011;18374;51.136;3.502;2022-07-03T13:20:29;2.45;;;0.93;;
31798;SDS011;18374;51.136;3.502;2022-07-03T13:23:00;7.28;;;1.60;;
31798;SDS011;18374;51.136;3.502;2022-07-03T13:25:42;3.00;;;0.88;;
31798;SDS011;18374;51.136;3.502;2022-07-03T13:28:11;2.72;;;0.80;;
31798;SDS011;18374;51.136;3.502;2022-07-03T13:30:44;2.03;;;1.02;;
31798;SDS011;18374;51.136;3.502;2022-07-03T13:33:11;2.25;;;0.60;;
31798;SDS011;18374;51.136;3.502;2022-07-03T13:35:48;3.70;;;0.82;;
31798;SDS011;18374;51.136;3.502;2022-07-03T13:38:23;3.42;;;0.68;;
31798;SDS011;18374;51.136;3.502;2022-07-03T13:40:53;0.95;;;0.40;;
31798;SDS011;18374;51.136;3.502;2022-07-03T13:43:26;3.45;;;1.02;;
31798;SDS011;18374;51.136;3.502;2022-07-03T13:46:21;3.78;;;0.88;;
31798;SDS011;18374;51.136;3.502;2022-07-03T13:49:04;1.58;;;0.50;;
31798;SDS011;18374;51.136;3.502;2022-07-03T13:51:55;1.88;;;0.50;;
31798;SDS011;18374;51.136;3.502;2022-07-03T13:54:40;3.08;;;0.65;;
31798;SDS011;18374;51.136;3.502;2022-07-03T13:57:11;2.08;;;0.63;;
31798;SDS011;18374;51.136;3.502;2022-07-03T13:59:47;2.63;;;0.60;;
31798;SDS011;18374;51.136;3.502;2022-07-03T14:02:34;2.10;;;0.50;;
31798;SDS011;18374;51.136;3.502;2022-07-03T14:05:17;3.72;;;0.90;;
31798;SDS011;18374;51.136;3.502;2022-07-03T14:07:47;0.73;;;0.40;;
31798;SDS011;18374;51.136;3.502;2022-07-03T14:10:18;2.25;;;0.95;;
31798;SDS011;18374;51.136;3.502;2022-07-03T14:12:50;2.13;;;0.55;;
31798;SDS011;18374;51.136;3.502;2022-07-03T14:15:18;3.92;;;0.70;;
31798;SDS011;18374;51.136;3.502;2022-07-03T14:17:46;2.63;;;1.27;;
31798;SDS011;18374;51.136;3.502;2022-07-03T14:20:16;2.88;;;0.70;;
31798;SDS011;18374;51.136;3.502;2022-07-03T14:25:22;6.93;;;0.60;;
31798;SDS011;18374;51.136;3.502;2022-07-03T14:27:50;1.25;;;0.60;;
31798;SDS011;18374;51.136;3.502;2022-07-03T14:30:39;2.95;;;0.73;;
31798;SDS011;18374;51.136;3.502;2022-07-03T14:33:25;3.30;;;0.88;;
31798;SDS011;18374;51.136;3.502;2022-07-03T14:36:02;1.45;;;0.52;;
31798;SDS011;18374;51.136;3.502;2022-07-03T14:38:31;1.77;;;0.43;;
31798;SDS011;18374;51.136;3.502;2022-07-03T14:41:11;1.75;;;0.70;;
31798;SDS011;18374;51.136;3.502;2022-07-03T14:43:56;4.05;;;0.63;;
31798;SDS011;18374;51.136;3.502;2022-07-03T14:46:24;1.02;;;0.43;;
31798;SDS011;18374;51.136;3.502;2022-07-03T14:48:52;6.32;;;0.50;;
31798;SDS011;18374;51.136;3.502;2022-07-03T14:51:19;3.55;;;0.90;;
31798;SDS011;18374;51.136;3.502;2022-07-03T14:53:50;3.65;;;0.90;;
31798;SDS011;18374;51.136;3.502;2022-07-03T14:56:24;3.45;;;0.68;;
31798;SDS011;18374;51.136;3.502;2022-07-03T14:59:07;14.30;;;1.02;;
31798;SDS011;18374;51.136;3.502;2022-07-03T15:01:40;1.17;;;0.38;;
31798;SDS011;18374;51.136;3.502;2022-07-03T15:07:25;1.92;;;0.73;;
31798;SDS011;18374;51.136;3.502;2022-07-03T15:10:13;1.55;;;0.63;;
31798;SDS011;18374;51.136;3.502;2022-07-03T15:12:43;6.18;;;0.90;;
31798;SDS011;18374;51.136;3.502;2022-07-03T15:15:16;5.55;;;0.70;;
31798;SDS011;18374;51.136;3.502;2022-07-03T15:17:54;5.10;;;0.70;;
31798;SDS011;18374;51.136;3.502;2022-07-03T15:20:37;5.78;;;0.80;;
31798;SDS011;18374;51.136;3.502;2022-07-03T15:23:14;4.85;;;0.80;;
31798;SDS011;18374;51.136;3.502;2022-07-03T15:26:02;2.88;;;0.95;;
31798;SDS011;18374;51.136;3.502;2022-07-03T15:28:36;2.25;;;0.68;;
31798;SDS011;18374;51.136;3.502;2022-07-03T15:31:19;1.92;;;0.55;;
31798;SDS011;18374;51.136;3.502;2022-07-03T15:33:47;3.70;;;0.68;;
31798;SDS011;18374;51.136;3.502;2022-07-03T15:36:15;2.28;;;0.50;;
31798;SDS011;18374;51.136;3.502;2022-07-03T15:38:57;3.80;;;0.85;;
31798;SDS011;18374;51.136;3.502;2022-07-03T15:42:10;1.80;;;0.63;;
31798;SDS011;18374;51.136;3.502;2022-07-03T15:45:23;2.28;;;0.52;;
31798;SDS011;18374;51.136;3.502;2022-07-03T15:54:00;3.13;;;0.90;;
31798;SDS011;18374;51.136;3.502;2022-07-03T15:56:32;11.82;;;1.00;;
31798;SDS011;18374;51.136;3.502;2022-07-03T15:59:04;7.18;;;1.02;;
31798;SDS011;18374;51.136;3.502;2022-07-03T16:04:41;5.25;;;0.90;;
31798;SDS011;18374;51.136;3.502;2022-07-03T16:07:36;5.10;;;0.70;;
31798;SDS011;18374;51.136;3.502;2022-07-03T16:10:07;4.93;;;0.80;;
31798;SDS011;18374;51.136;3.502;2022-07-03T16:12:37;5.03;;;0.93;;
31798;SDS011;18374;51.136;3.502;2022-07-03T16:15:07;3.45;;;1.15;;
31798;SDS011;18374;51.136;3.502;2022-07-03T16:17:36;2.63;;;0.70;;
31798;SDS011;18374;51.136;3.502;2022-07-03T16:20:04;8.40;;;1.42;;
31798;SDS011;18374;51.136;3.502;2022-07-03T16:22:34;18.20;;;1.48;;
31798;SDS011;18374;51.136;3.502;2022-07-03T16:25:04;4.97;;;1.00;;
31798;SDS011;18374;51.136;3.502;2022-07-03T16:27:35;7.53;;;0.98;;
31798;SDS011;18374;51.136;3.502;2022-07-03T16:30:03;4.25;;;0.70;;
31798;SDS011;18374;51.136;3.502;2022-07-03T16:32:36;4.80;;;1.10;;
31798;SDS011;18374;51.136;3.502;2022-07-03T16:35:16;1.85;;;0.75;;
31798;SDS011;18374;51.136;3.502;2022-07-03T16:38:16;2.45;;;0.68;;
31798;SDS011;18374;51.136;3.502;2022-07-03T16:40:57;3.47;;;0.90;;
31798;SDS011;18374;51.136;3.502;2022-07-03T16:43:30;6.07;;;0.80;;
31798;SDS011;18374;51.136;3.502;2022-07-03T16:46:01;5.43;;;0.80;;
31798;SDS011;18374;51.136;3.502;2022-07-03T16:48:30;4.32;;;0.98;;
31798;SDS011;18374;51.136;3.502;2022-07-03T16:51:01;3.05;;;0.80;;
31798;SDS011;18374;51.136;3.502;2022-07-03T16:53:33;4.50;;;1.02;;
31798;SDS011;18374;51.136;3.502;2022-07-03T16:56:10;4.00;;;0.80;;
31798;SDS011;18374;51.136;3.502;2022-07-03T16:58:42;6.15;;;0.93;;
31798;SDS011;18374;51.136;3.502;2022-07-03T17:01:23;3.72;;;0.52;;
31798;SDS011;18374;51.136;3.502;2022-07-03T17:04:04;5.78;;;0.70;;
31798;SDS011;18374;51.136;3.502;2022-07-03T17:06:44;2.25;;;0.75;;